Observations for BRINDISI, Italy (LIBR)

LIBR 201950Z 33009KT 9999 SCT030 12/06 Q1024
LIBR 201920Z 34008KT 9999 SCT030 12/06 Q1024
LIBR 201850Z 34008KT 9999 SCT030 12/06 Q1024
LIBR 201820Z 32008KT 9999 SCT030 12/06 Q1024
LIBR 201750Z 33008KT 9999 SCT030 12/07 Q1023
LIBR 201720Z 33009KT 9999 FEW030 12/06 Q1023
LIBR 201650Z 32006KT 9999 FEW030 12/07 Q1023
LIBR 201620Z 33007KT 9999 FEW030 12/07 Q1023
LIBR 201550Z 33007KT 300V360 9999 FEW030 13/07 Q1022
LIBR 201520Z 33009KT 9999 FEW030 13/07 Q1022
LIBR 201450Z 33009KT 300V360 9999 FEW030 14/07 Q1023
LIBR 201420Z 33010KT 9999 FEW010 13/07 Q1023
LIBR 201350Z 33010KT 9999 FEW010 14/07 Q1023
LIBR 201320Z 34011KT 9999 FEW010 14/07 Q1023
LIBR 201250Z 31011KT 9999 FEW010 14/10 Q1023
LIBR 201220Z 31012KT 8000 NSC 13/10 Q1023   
LIBR 201150Z 31012KT 7000 NSC 13/10 Q1023   
LIBR 201120Z 31012KT 7000 NSC 12/09 Q1023   
LIBR 201050Z 30013KT 7000 NSC 12/08 Q1023   
LIBR 201020Z 31013KT 7000 NSC 12/08 Q1024   
LIBR 200950Z 31014KT 7000 NSC 12/08 Q1024   
LIBR 200920Z 31013KT 7000 NSC 12/08 Q1023   
LIBR 200850Z 31014KT 7000 NSC 11/08 Q1023   
LIBR 200820Z 31013KT 7000 NSC 11/08 Q1023   
LIBR 200750Z 30008KT 4000 BR FEW010 11/09 Q1023 
LIBR 200720Z 29005KT 4000 BR FEW010 08/07 Q1023 
LIBR 200650Z 29005KT 4000 BR FEW010 07/06 Q1023 
LIBR 200620Z 29006KT 4000 BR FEW010 07/06 Q1022 
LIBR 200550Z 29007KT 3000 BR NSC 06/05 Q1022
LIBR 200520Z 29007KT 3500 BR NSC 05/04 Q1022
LIBR 200450Z 28005KT 4000 BR NSC 05/05 Q1022
LIBR 200350Z 24003KT 3000 NSC 04/03 Q1022   
LIBR 200250Z 24005KT 3000 BR NSC 04/03 Q1021
LIBR 200220Z 23004KT 3000 BR NSC 04/03 Q1022
LIBR 200150Z 22004KT 2000 BR NSC 04/04 Q1022
LIBR 200120Z VRB02KT 2000 BR NSC 05/05 Q1022
LIBR 200050Z 22002KT 2000 BR NSC 06/05 Q1022
LIBR 200020Z 23004KT 2000 BR NSC 05/05 Q1022
LIBR 192350Z 23004KT 2000 BR NSC 05/05 Q1022
LIBR 192320Z 22003KT 2000 R31/0350V0700D BR NSC 06/05 Q1022 
LIBR 192250Z 25004KT 2500 BR NSC 07/07 Q1022
LIBR 192220Z 22004KT 5000 BR NSC 08/07 Q1022
LIBR 192150Z 22003KT 7000 NSC 08/07 Q1022   
LIBR 192120Z 23004KT 8000 NSC 08/07 Q1022   
LIBR 192050Z 22003KT CAVOK 08/07 Q1022  
LIBR 192020Z 22004KT CAVOK 08/07 Q1022  
LIBR 191950Z 22004KT CAVOK 09/07 Q1022  
LIBR 191920Z 23003KT CAVOK 09/07 Q1021